createdAt,value
2023-02-04T00:00:46.333Z,5.07
2023-02-04T00:03:15.281Z,4.93
2023-02-04T00:05:44.363Z,4.93
2023-02-04T00:08:12.990Z,4.85
2023-02-04T00:10:41.562Z,4.82
2023-02-04T00:13:09.982Z,4.71
2023-02-04T00:15:39.928Z,4.70
2023-02-04T00:18:09.782Z,4.62
2023-02-04T00:20:38.484Z,4.60
2023-02-04T00:23:06.957Z,4.46
2023-02-04T00:25:35.688Z,4.45
2023-02-04T00:28:04.394Z,4.47
2023-02-04T00:30:33.201Z,4.46
2023-02-04T00:33:03.269Z,4.40
2023-02-04T00:35:32.211Z,4.42
2023-02-04T00:38:00.946Z,4.41
2023-02-04T00:40:29.808Z,4.38
2023-02-04T00:42:58.383Z,4.32
2023-02-04T00:45:27.430Z,4.26
2023-02-04T00:47:57.367Z,4.14
2023-02-04T00:50:27.671Z,4.07
2023-02-04T00:52:56.581Z,3.95
2023-02-04T00:55:25.123Z,3.88
2023-02-04T00:57:54.078Z,3.81
2023-02-04T01:00:22.976Z,3.78
2023-02-04T01:02:51.923Z,3.75
2023-02-04T01:05:20.743Z,3.70
2023-02-04T01:07:51.170Z,3.68
2023-02-04T01:10:20.731Z,3.59
2023-02-04T01:12:49.635Z,3.48
2023-02-04T01:15:18.492Z,3.47
2023-02-04T01:17:47.229Z,3.40
2023-02-04T01:20:16.287Z,3.39
2023-02-04T01:22:44.702Z,3.30
2023-02-04T01:25:14.740Z,3.28
2023-02-04T01:27:43.313Z,3.22
2023-02-04T01:30:14.170Z,3.25
2023-02-04T01:32:42.830Z,3.25
2023-02-04T01:35:11.745Z,3.23
2023-02-04T01:37:40.847Z,3.20
2023-02-04T01:40:10.942Z,3.16
2023-02-04T01:42:41.583Z,3.05
2023-02-04T01:45:11.897Z,2.85
2023-02-04T01:47:41.436Z,2.65
2023-02-04T01:50:14.656Z,2.48
2023-02-04T01:52:44.715Z,2.23
2023-02-04T01:55:17.601Z,2.17
2023-02-04T01:57:48.308Z,2.14
2023-02-04T02:00:21.271Z,2.06
2023-02-04T02:02:51.620Z,1.97
2023-02-04T02:05:23.839Z,1.87
2023-02-04T02:07:54.713Z,1.76
2023-02-04T02:10:23.812Z,1.76
2023-02-04T02:12:55.129Z,1.75
2023-02-04T02:15:25.074Z,1.75
2023-02-04T02:17:54.691Z,1.75
2023-02-04T02:20:25.795Z,1.76
2023-02-04T02:23:04.205Z,1.62
2023-02-04T02:25:35.180Z,1.67
2023-02-04T02:28:07.072Z,1.64
2023-02-04T02:30:35.972Z,1.56
2023-02-04T02:33:06.543Z,1.64
2023-02-04T02:35:35.661Z,1.53
2023-02-04T02:38:04.232Z,1.50
2023-02-04T02:40:34.609Z,1.52
2023-02-04T02:43:03.383Z,1.43
2023-02-04T02:45:34.305Z,1.46
2023-02-04T02:48:04.569Z,1.45
2023-02-04T02:50:34.854Z,1.41
2023-02-04T02:53:04.455Z,1.41
2023-02-04T02:55:34.474Z,1.40
2023-02-04T02:58:03.658Z,1.41
2023-02-04T03:00:32.804Z,1.42
2023-02-04T03:03:06.557Z,1.45
2023-02-04T03:05:41.434Z,1.45
2023-02-04T03:08:10.617Z,1.43
2023-02-04T03:10:42.745Z,1.41
2023-02-04T03:13:12.875Z,1.43
2023-02-04T03:15:42.593Z,1.41
2023-02-04T03:18:11.641Z,1.43
2023-02-04T03:20:41.239Z,1.44
2023-02-04T03:23:09.756Z,1.41
2023-02-04T03:25:38.387Z,1.27
2023-02-04T03:28:08.361Z,1.43
2023-02-04T03:30:37.079Z,1.35
2023-02-04T03:33:06.171Z,1.33
2023-02-04T03:35:34.846Z,1.27
2023-02-04T03:38:03.210Z,1.26
2023-02-04T03:40:31.913Z,1.25
2023-02-04T03:43:00.648Z,1.28
2023-02-04T03:45:40.558Z,1.24
2023-02-04T03:48:09.495Z,1.18
2023-02-04T03:50:38.114Z,1.19
2023-02-04T03:53:06.767Z,1.17
2023-02-04T03:55:36.190Z,1.09
2023-02-04T03:58:05.068Z,1.14
2023-02-04T04:00:35.005Z,1.12
2023-02-04T04:03:05.391Z,1.10
2023-02-04T04:05:34.718Z,1.10
2023-02-04T04:08:03.255Z,1.09
2023-02-04T04:10:34.810Z,1.10
2023-02-04T04:13:03.515Z,1.06
2023-02-04T04:15:34.954Z,1.05
2023-02-04T04:18:04.863Z,1.07
2023-02-04T04:20:33.615Z,1.05
2023-02-04T04:23:03.018Z,1.03
2023-02-04T04:25:32.019Z,1.01
2023-02-04T04:28:00.585Z,0.95
2023-02-04T04:30:29.101Z,1.02
2023-02-04T04:32:58.998Z,1.01
2023-02-04T04:35:27.547Z,1.06
2023-02-04T04:37:56.178Z,1.01
2023-02-04T04:40:24.610Z,1.02
2023-02-04T04:42:53.267Z,1.01
2023-02-04T04:45:22.724Z,0.98
2023-02-04T04:47:51.174Z,1.00
2023-02-04T04:50:21.571Z,0.95
2023-02-04T04:52:49.962Z,0.97
2023-02-04T04:55:18.875Z,0.96
2023-02-04T04:57:47.888Z,0.87
2023-02-04T05:00:19.139Z,0.99
2023-02-04T05:02:47.791Z,0.96
2023-02-04T05:05:17.069Z,1.07
2023-02-04T05:07:47.754Z,1.03
2023-02-04T05:10:16.941Z,0.95
2023-02-04T05:12:45.608Z,0.92
2023-02-04T05:15:14.525Z,1.01
2023-02-04T05:17:43.248Z,0.96
2023-02-04T05:20:12.412Z,0.85
2023-02-04T05:22:40.909Z,0.93
2023-02-04T05:25:11.050Z,0.93
2023-02-04T05:27:39.767Z,0.90
2023-02-04T05:30:08.995Z,0.90
2023-02-04T05:32:37.464Z,0.88
2023-02-04T05:35:07.180Z,0.90
2023-02-04T05:37:35.740Z,0.86
2023-02-04T05:40:04.643Z,0.89
2023-02-04T05:42:35.028Z,0.91
2023-02-04T05:45:03.445Z,0.89
2023-02-04T05:47:32.330Z,0.95
2023-02-04T05:50:00.751Z,0.95
2023-02-04T05:52:29.905Z,1.00
2023-02-04T05:54:58.413Z,1.01
2023-02-04T05:57:27.091Z,1.00
2023-02-04T05:59:57.359Z,0.94
2023-02-04T06:02:25.851Z,0.98
2023-02-04T06:04:54.516Z,0.91
2023-02-04T06:07:23.197Z,0.86
2023-02-04T06:09:52.092Z,0.93
2023-02-04T06:12:21.095Z,0.89
2023-02-04T06:14:49.485Z,0.90
2023-02-04T06:17:19.399Z,0.94
2023-02-04T06:19:47.830Z,0.95
2023-02-04T06:22:16.260Z,0.95
2023-02-04T06:24:46.668Z,0.98
2023-02-04T06:27:19.113Z,1.01
2023-02-04T06:29:47.638Z,0.82
2023-02-04T06:32:16.453Z,0.83
2023-02-04T06:34:47.175Z,0.75
2023-02-04T06:37:17.713Z,0.72
2023-02-04T06:39:46.595Z,0.71
2023-02-04T06:42:15.007Z,0.72
2023-02-04T06:44:43.781Z,0.74
2023-02-04T06:47:12.178Z,0.70
2023-02-04T06:49:40.874Z,0.75
2023-02-04T06:52:11.865Z,0.75
2023-02-04T06:54:40.290Z,0.73
2023-02-04T06:57:08.730Z,0.68
2023-02-04T06:59:38.054Z,0.61
2023-02-04T07:02:09.227Z,0.62
2023-02-04T07:04:38.053Z,0.61
2023-02-04T07:07:09.570Z,0.58
2023-02-04T07:09:40.824Z,0.57
2023-02-04T07:12:09.445Z,0.60
2023-02-04T07:14:38.089Z,0.52
2023-02-04T07:17:06.496Z,0.59
2023-02-04T07:19:36.490Z,0.54
2023-02-04T07:22:05.686Z,0.58
2023-02-04T07:24:34.749Z,0.60
2023-02-04T07:27:05.373Z,0.57
2023-02-04T07:29:34.043Z,0.62
2023-02-04T07:32:03.500Z,0.58
2023-02-04T07:34:32.661Z,0.59
2023-02-04T07:37:01.229Z,0.53
2023-02-04T07:39:29.916Z,0.51
2023-02-04T07:41:58.545Z,0.56
2023-02-04T07:44:28.426Z,0.61
2023-02-04T07:46:57.935Z,0.63
2023-02-04T07:49:26.937Z,0.69
2023-02-04T07:51:55.580Z,0.76
2023-02-04T07:54:24.106Z,0.82
2023-02-04T07:56:52.503Z,0.94
2023-02-04T07:59:21.347Z,0.97
2023-02-04T08:01:51.590Z,1.03
2023-02-04T08:04:20.746Z,1.11
2023-02-04T08:06:49.200Z,1.13
2023-02-04T08:09:17.940Z,1.20
2023-02-04T08:11:47.022Z,1.27
2023-02-04T08:14:15.885Z,1.28
2023-02-04T08:16:44.443Z,1.33
2023-02-04T08:19:21.074Z,1.35
2023-02-04T08:21:50.561Z,1.44
2023-02-04T08:24:19.409Z,1.46
2023-02-04T08:26:49.756Z,1.45
2023-02-04T08:29:20.643Z,1.52
2023-02-04T08:31:50.140Z,1.55
2023-02-04T08:34:20.420Z,1.56
2023-02-04T08:36:48.962Z,1.55
2023-02-04T08:39:17.697Z,1.58
2023-02-04T08:41:46.958Z,1.62
2023-02-04T08:44:15.789Z,1.68
2023-02-04T08:46:44.651Z,1.69
2023-02-04T08:49:13.691Z,1.77
2023-02-04T08:51:44.115Z,1.73
2023-02-04T08:54:12.982Z,1.78
2023-02-04T08:56:42.324Z,1.82
2023-02-04T08:59:10.924Z,1.88
2023-02-04T09:01:39.733Z,1.87
2023-02-04T09:04:08.651Z,1.93
2023-02-04T09:06:37.068Z,2.16
2023-02-04T09:09:07.029Z,2.14
2023-02-04T09:11:35.907Z,2.17
2023-02-04T09:14:04.453Z,2.12
2023-02-04T09:16:33.329Z,2.04
2023-02-04T09:19:02.268Z,2.05
2023-02-04T09:21:31.882Z,2.07
2023-02-04T09:24:00.301Z,2.10
2023-02-04T09:26:32.318Z,2.15
2023-02-04T09:29:00.895Z,2.15
2023-02-04T09:31:29.442Z,2.12
2023-02-04T09:33:58.224Z,2.14
2023-02-04T09:36:31.097Z,2.11
2023-02-04T09:38:59.641Z,2.11
2023-02-04T09:41:28.617Z,2.12
2023-02-04T09:43:59.050Z,2.09
2023-02-04T09:46:30.353Z,1.97
2023-02-04T09:49:00.673Z,1.94
2023-02-04T09:51:32.903Z,1.85
2023-02-04T09:54:09.850Z,1.89
2023-02-04T09:56:39.532Z,1.83
2023-02-04T09:59:13.859Z,1.91
2023-02-04T10:01:42.268Z,2.00
2023-02-04T10:04:14.111Z,2.11
2023-02-04T10:06:44.496Z,2.13
2023-02-04T10:09:14.335Z,2.02
2023-02-04T10:11:44.648Z,1.89
2023-02-04T10:14:18.509Z,1.85
2023-02-04T10:16:54.525Z,1.91
2023-02-04T10:19:25.500Z,1.89
2023-02-04T10:21:54.929Z,1.96
2023-02-04T10:24:26.601Z,1.91
2023-02-04T10:26:55.479Z,1.92
2023-02-04T10:29:26.052Z,1.99
2023-02-04T10:31:55.688Z,2.02
2023-02-04T10:34:25.938Z,2.04
2023-02-04T10:36:57.993Z,2.00
2023-02-04T10:39:27.825Z,1.94
2023-02-04T10:41:57.796Z,1.94
2023-02-04T10:44:30.850Z,1.97
2023-02-04T10:47:03.617Z,1.97
2023-02-04T10:49:33.284Z,2.04
2023-02-04T10:52:04.636Z,2.14
2023-02-04T10:54:38.054Z,2.18
2023-02-04T10:57:16.800Z,2.18
2023-02-04T10:59:47.970Z,2.16
2023-02-04T11:02:36.260Z,2.15
2023-02-04T11:05:06.762Z,2.45
2023-02-04T11:07:36.286Z,2.44
2023-02-04T11:10:05.563Z,2.31
2023-02-04T11:12:42.779Z,2.42
2023-02-04T11:15:44.827Z,2.33
2023-02-04T11:18:26.740Z,2.32
2023-02-04T11:20:58.368Z,2.39
2023-02-04T11:23:35.932Z,2.41
2023-02-04T11:26:08.636Z,2.42
2023-02-04T11:28:47.035Z,2.46
2023-02-04T11:31:30.499Z,2.51
2023-02-04T11:34:12.556Z,2.42
2023-02-04T11:37:13.225Z,2.31
2023-02-04T11:39:43.909Z,2.24
2023-02-04T11:42:20.092Z,2.22
2023-02-04T11:44:53.816Z,2.23
2023-02-04T11:47:26.336Z,2.23
2023-02-04T11:49:57.753Z,2.19
2023-02-04T11:52:26.217Z,2.15
2023-02-04T11:54:56.440Z,2.11
2023-02-04T11:57:24.982Z,1.99
2023-02-04T11:59:55.566Z,2.03
2023-02-04T12:02:27.721Z,2.04
2023-02-04T12:04:58.801Z,2.11
2023-02-04T12:07:29.582Z,2.14
2023-02-04T12:09:59.088Z,2.19
2023-02-04T12:12:30.568Z,2.12
2023-02-04T12:15:03.672Z,2.12
2023-02-04T12:17:33.558Z,1.98
2023-02-04T12:20:02.153Z,1.97
2023-02-04T12:22:30.829Z,1.97
2023-02-04T12:24:59.813Z,2.01
2023-02-04T12:27:28.563Z,2.12
2023-02-04T12:29:57.409Z,2.24
2023-02-04T12:32:26.146Z,2.30
2023-02-04T12:34:56.123Z,2.26
2023-02-04T12:37:24.611Z,2.11
2023-02-04T12:39:53.139Z,2.22
2023-02-04T12:42:21.723Z,2.20
2023-02-04T12:44:50.171Z,2.18
2023-02-04T12:47:21.101Z,2.24
2023-02-04T12:49:50.259Z,2.22
2023-02-04T12:52:20.428Z,2.42
2023-02-04T12:54:48.915Z,2.35
2023-02-04T12:57:20.218Z,2.52
2023-02-04T12:59:49.435Z,2.85
2023-02-04T13:02:18.093Z,3.10
2023-02-04T13:04:46.905Z,3.31
2023-02-04T13:07:15.892Z,3.07
2023-02-04T13:09:47.102Z,2.71
2023-02-04T13:12:17.756Z,2.65
2023-02-04T13:14:47.160Z,2.68
2023-02-04T13:17:15.778Z,3.52
2023-02-04T13:19:44.209Z,3.44
2023-02-04T13:22:12.658Z,3.50
2023-02-04T13:24:41.089Z,3.28
2023-02-04T13:27:11.070Z,3.09
2023-02-04T13:29:40.234Z,3.01
2023-02-04T13:32:08.795Z,3.00
2023-02-04T13:34:37.273Z,2.80
2023-02-04T13:37:05.900Z,2.73
2023-02-04T13:39:34.587Z,2.67
2023-02-04T13:42:04.469Z,2.69
2023-02-04T13:44:34.611Z,2.54
2023-02-04T13:47:03.116Z,2.42
2023-02-04T13:49:32.354Z,2.49
2023-02-04T13:52:00.701Z,2.55
2023-02-04T13:54:29.068Z,2.55
2023-02-04T13:56:57.432Z,2.49
2023-02-04T13:59:29.056Z,2.42
2023-02-04T14:01:58.915Z,2.42
2023-02-04T14:04:28.049Z,2.44
2023-02-04T14:06:56.736Z,2.35
2023-02-04T14:09:25.627Z,2.16
2023-02-04T14:11:54.019Z,1.40
2023-02-04T14:14:22.747Z,1.10
2023-02-04T14:16:51.300Z,0.99
2023-02-04T14:19:21.571Z,0.98
2023-02-04T14:21:50.459Z,1.06
2023-02-04T14:24:18.900Z,1.16
2023-02-04T14:26:48.138Z,1.33
2023-02-04T14:29:16.692Z,1.54
2023-02-04T14:31:45.131Z,1.59
2023-02-04T14:34:13.646Z,1.67
2023-02-04T14:36:43.631Z,1.53
2023-02-04T14:39:12.101Z,1.57
2023-02-04T14:41:40.753Z,1.53
2023-02-04T14:44:09.252Z,1.55
2023-02-04T14:46:37.869Z,1.36
2023-02-04T14:49:06.326Z,1.48
2023-02-04T14:51:34.858Z,1.48
2023-02-04T14:54:05.036Z,1.18
2023-02-04T14:56:33.460Z,0.97
2023-02-04T14:59:01.894Z,0.77
2023-02-04T15:01:31.151Z,0.69
2023-02-04T15:03:59.706Z,0.69
2023-02-04T15:06:28.172Z,0.54
2023-02-04T15:08:57.483Z,0.49
2023-02-04T15:11:27.664Z,0.40
2023-02-04T15:13:56.085Z,0.48
2023-02-04T15:16:24.657Z,0.48
2023-02-04T15:18:53.380Z,0.51
2023-02-04T15:21:21.774Z,0.53
2023-02-04T15:23:50.197Z,0.58
2023-02-04T15:26:18.563Z,0.57
2023-02-04T15:28:48.381Z,0.75
2023-02-04T15:31:16.888Z,0.72
2023-02-04T15:33:45.555Z,0.80
2023-02-04T15:36:13.942Z,0.81
2023-02-04T15:38:42.658Z,0.83
2023-02-04T15:41:11.179Z,0.81
2023-02-04T15:43:39.786Z,0.84
2023-02-04T15:46:10.603Z,0.82
2023-02-04T15:48:39.107Z,0.81
2023-02-04T15:51:07.844Z,0.97
2023-02-04T15:53:37.929Z,0.93
2023-02-04T15:56:07.673Z,0.92
2023-02-04T15:58:36.083Z,0.92
2023-02-04T16:01:04.769Z,0.97
2023-02-04T16:03:35.152Z,0.94
2023-02-04T16:06:03.958Z,0.96
2023-02-04T16:08:32.353Z,0.93
2023-02-04T16:11:00.907Z,0.94
2023-02-04T16:13:29.297Z,0.96
2023-02-04T16:15:58.234Z,0.90
2023-02-04T16:18:26.751Z,0.79
2023-02-04T16:20:56.685Z,0.74
2023-02-04T16:23:25.842Z,0.78
2023-02-04T16:25:54.436Z,0.72
2023-02-04T16:28:23.181Z,0.64
2023-02-04T16:30:51.912Z,0.68
2023-02-04T16:33:20.623Z,0.64
2023-02-04T16:36:02.552Z,0.62
2023-02-04T16:38:31.709Z,0.58
2023-02-04T16:41:00.655Z,0.56
2023-02-04T16:43:29.604Z,0.52
2023-02-04T16:45:58.051Z,0.50
2023-02-04T16:48:27.042Z,0.51
2023-02-04T16:50:55.779Z,0.49
2023-02-04T16:53:25.752Z,0.55
2023-02-04T16:55:55.887Z,0.58
2023-02-04T16:58:25.813Z,0.55
2023-02-04T17:00:54.359Z,0.53
2023-02-04T17:03:23.068Z,0.56
2023-02-04T17:05:51.746Z,0.52
2023-02-04T17:08:21.310Z,0.57
2023-02-04T17:11:08.420Z,0.55
2023-02-04T17:13:36.839Z,0.54
2023-02-04T17:16:05.599Z,0.60
2023-02-04T17:18:34.748Z,0.61
2023-02-04T17:21:03.523Z,0.58
2023-02-04T17:23:32.259Z,0.66
2023-02-04T17:26:02.364Z,0.60
2023-02-04T17:28:31.279Z,0.62
2023-02-04T17:30:59.763Z,0.63
2023-02-04T17:33:28.723Z,0.65
2023-02-04T17:35:58.011Z,0.56
2023-02-04T17:38:28.010Z,0.73
2023-02-04T17:40:56.707Z,0.71
2023-02-04T17:43:26.849Z,0.62
2023-02-04T17:45:55.294Z,0.66
2023-02-04T17:48:24.061Z,0.60
2023-02-04T17:50:53.680Z,0.64
2023-02-04T17:53:22.382Z,0.67
2023-02-04T17:55:50.822Z,0.65
2023-02-04T17:58:27.277Z,0.65
2023-02-04T18:00:57.968Z,0.69
2023-02-04T18:03:29.077Z,0.64
2023-02-04T18:05:58.519Z,0.70
2023-02-04T18:08:31.856Z,0.66
2023-02-04T18:11:00.356Z,0.67
2023-02-04T18:13:34.339Z,0.63
2023-02-04T18:16:10.514Z,0.67
2023-02-04T18:18:40.771Z,0.64
2023-02-04T18:21:20.095Z,0.70
2023-02-04T18:23:50.104Z,0.69
2023-02-04T18:26:20.704Z,0.72
2023-02-04T18:28:54.769Z,0.74
2023-02-04T18:31:33.916Z,0.65
2023-02-04T18:34:03.928Z,0.86
2023-02-04T18:36:34.766Z,0.82
2023-02-04T18:39:15.308Z,0.73
2023-02-04T18:41:46.168Z,0.70
2023-02-04T18:44:30.518Z,0.73
2023-02-04T18:46:58.986Z,0.66
2023-02-04T18:49:29.205Z,0.64
2023-02-04T18:51:59.868Z,0.66
2023-02-04T18:54:32.356Z,0.68
2023-02-04T18:57:19.417Z,0.72
2023-02-04T18:59:49.650Z,0.74
2023-02-04T19:02:36.778Z,0.75
2023-02-04T19:05:20.846Z,0.74
2023-02-04T19:07:51.468Z,0.63
2023-02-04T19:10:30.256Z,0.65
2023-02-04T19:13:12.364Z,0.71
2023-02-04T19:15:42.574Z,0.71
2023-02-04T19:18:24.116Z,0.61
2023-02-04T19:20:52.954Z,0.68
2023-02-04T19:23:23.335Z,0.74
2023-02-04T19:25:53.963Z,0.89
2023-02-04T19:28:31.002Z,0.56
2023-02-04T19:31:04.628Z,0.68
2023-02-04T19:33:36.880Z,0.54
2023-02-04T19:36:40.640Z,0.43
2023-02-04T19:39:23.807Z,0.38
2023-02-04T19:41:53.535Z,0.36
2023-02-04T19:44:43.992Z,0.28
2023-02-04T19:47:28.651Z,0.24
2023-02-04T19:50:22.161Z,0.24
2023-02-04T19:52:52.484Z,0.23
2023-02-04T19:55:30.981Z,0.27
2023-02-04T19:58:02.602Z,0.29
2023-02-04T20:00:44.982Z,0.28
2023-02-04T20:03:41.005Z,0.34
2023-02-04T20:06:33.025Z,0.33
2023-02-04T20:09:03.795Z,0.23
2023-02-04T20:11:38.519Z,0.30
2023-02-04T20:14:36.093Z,0.24
2023-02-04T20:17:14.332Z,0.24
2023-02-04T20:19:44.211Z,0.25
2023-02-04T20:22:38.354Z,0.23
2023-02-04T20:25:37.796Z,0.18
2023-02-04T20:28:21.425Z,0.15
2023-02-04T20:30:50.896Z,0.19
2023-02-04T20:33:31.415Z,0.17
2023-02-04T20:36:42.691Z,0.14
2023-02-04T20:39:40.162Z,0.13
2023-02-04T20:42:28.888Z,0.04
2023-02-04T20:45:03.603Z,-0.04
2023-02-04T20:47:36.914Z,-0.08
2023-02-04T20:50:38.775Z,-0.09
2023-02-04T20:53:23.053Z,-0.10
2023-02-04T20:55:54.386Z,-0.11
2023-02-04T20:58:24.772Z,-0.15
2023-02-04T21:00:56.203Z,-0.21
2023-02-04T21:03:27.797Z,-0.22
2023-02-04T21:05:58.503Z,-0.37
2023-02-04T21:08:41.879Z,-0.44
2023-02-04T21:11:10.574Z,-0.38
2023-02-04T21:13:40.910Z,-0.39
2023-02-04T21:16:10.007Z,-0.35
2023-02-04T21:18:39.271Z,-0.39
2023-02-04T21:21:09.196Z,-0.45
2023-02-04T21:23:39.138Z,-0.58
2023-02-04T21:26:08.104Z,-0.57
2023-02-04T21:28:36.927Z,-0.60
2023-02-04T21:31:05.988Z,-0.67
2023-02-04T21:33:34.606Z,-0.71
2023-02-04T21:36:03.058Z,-0.70
2023-02-04T21:38:31.596Z,-0.62
2023-02-04T21:41:01.446Z,-0.68
2023-02-04T21:43:29.980Z,-0.63
2023-02-04T21:45:58.571Z,-0.63
2023-02-04T21:48:27.200Z,-0.68
2023-02-04T21:50:55.585Z,-0.68
2023-02-04T21:53:24.531Z,-0.68
2023-02-04T21:55:52.994Z,-0.65
2023-02-04T21:58:22.962Z,-0.62
2023-02-04T22:00:51.735Z,-0.64
2023-02-04T22:03:20.236Z,-0.74
2023-02-04T22:05:48.731Z,-0.76
2023-02-04T22:08:17.257Z,-0.77
2023-02-04T22:10:45.818Z,-0.77
2023-02-04T22:13:14.402Z,-0.81
2023-02-04T22:15:44.339Z,-0.80
2023-02-04T22:18:12.881Z,-0.71
2023-02-04T22:20:41.390Z,-0.76
2023-02-04T22:23:09.946Z,-0.66
2023-02-04T22:25:38.467Z,-0.68
2023-02-04T22:28:07.224Z,-0.61
2023-02-04T22:30:35.742Z,-0.69
2023-02-04T22:33:05.725Z,-0.80
2023-02-04T22:35:36.950Z,-0.78
2023-02-04T22:38:05.407Z,-0.66
2023-02-04T22:40:33.912Z,-0.67
2023-02-04T22:43:02.421Z,-0.67
2023-02-04T22:45:31.032Z,-0.65
2023-02-04T22:47:59.646Z,-0.62
2023-02-04T22:50:29.529Z,-0.70
2023-02-04T22:52:57.962Z,-0.62
2023-02-04T22:55:26.811Z,-0.67
2023-02-04T22:57:55.334Z,-0.56
2023-02-04T23:00:24.032Z,-0.52
2023-02-04T23:02:52.604Z,-0.55
2023-02-04T23:05:21.133Z,-0.59
2023-02-04T23:07:51.164Z,-0.68
2023-02-04T23:10:19.908Z,-0.61
2023-02-04T23:12:48.405Z,-0.71
2023-02-04T23:15:17.294Z,-0.69
2023-02-04T23:17:45.840Z,-0.70
2023-02-04T23:20:14.403Z,-0.69
2023-02-04T23:22:42.965Z,-0.70
2023-02-04T23:25:13.020Z,-0.74
2023-02-04T23:27:41.689Z,-0.80
2023-02-04T23:30:11.191Z,-0.78
2023-02-04T23:32:39.700Z,-0.85
2023-02-04T23:35:08.770Z,-0.88
2023-02-04T23:37:37.359Z,-0.85
2023-02-04T23:40:06.661Z,-0.92
2023-02-04T23:42:36.672Z,-0.95
2023-02-04T23:45:05.783Z,-0.90
2023-02-04T23:47:34.376Z,-0.89
2023-02-04T23:50:02.875Z,-0.95
2023-02-04T23:52:31.457Z,-0.94
2023-02-04T23:54:59.930Z,-1.01
2023-02-04T23:57:28.487Z,-1.11
2023-02-04T23:59:58.373Z,-1.09
